Time;durP1;ratioP1;P1;durP2;ratioP2;P2;SDS_P1;SDS_P2;PMS_P1;PMS_P2;Temp;Humidity;BMP_temperature;BMP_pressure;BME280_temperature;BME280_humidity;BME280_pressure;Samples;Min_cycle;Max_cycle;Signal;HPM_P1;HPM_P2
2020/12/22 00:02:29;;;;;;;18.85;8.00;;;;;;;19.77;54.31;100667.17;2370811;75;50654;-79
2020/12/22 00:05:31;;;;;;;20.23;8.50;;;;;;;19.76;54.26;100672.23;2333731;75;51634;-79
2020/12/22 00:08:34;;;;;;;18.62;7.80;;;;;;;19.73;54.17;100656.48;2337076;75;51478;-78
2020/12/22 00:11:36;;;;;;;27.90;9.53;;;;;;;19.70;54.20;100657.69;2370771;75;50182;-79
2020/12/22 00:14:38;;;;;;;23.00;8.30;;;;;;;19.69;54.29;100657.37;2348561;75;50298;-79
2020/12/22 00:17:44;;;;;;;23.45;7.92;;;;;;;19.65;54.27;100655.23;2328251;76;50685;-79
2020/12/22 00:20:46;;;;;;;19.37;8.50;;;;;;;19.63;54.20;100647.90;2360592;75;50715;-79
2020/12/22 00:23:48;;;;;;;27.27;8.70;;;;;;;19.55;54.26;100633.56;2368069;75;51513;-78
2020/12/22 00:26:51;;;;;;;23.60;7.95;;;;;;;19.51;54.35;100637.64;2370128;75;51212;-78
2020/12/22 00:29:53;;;;;;;16.15;8.05;;;;;;;19.47;54.10;100626.98;2370601;75;51426;-78
2020/12/22 00:32:55;;;;;;;21.05;7.70;;;;;;;19.46;54.33;100616.42;2345894;75;50262;-79
2020/12/22 00:35:57;;;;;;;15.25;7.95;;;;;;;19.46;54.33;100612.40;2328083;75;50311;-79
2020/12/22 00:38:59;;;;;;;21.48;8.20;;;;;;;19.44;54.38;100608.55;2367490;75;50672;-78
2020/12/22 00:42:02;;;;;;;23.98;8.80;;;;;;;19.40;54.14;100606.46;2370246;75;50699;-78
2020/12/22 00:45:04;;;;;;;20.97;8.38;;;;;;;19.35;54.29;100594.95;2370453;75;50389;-77
2020/12/22 00:48:06;;;;;;;19.00;7.47;;;;;;;19.33;54.33;100592.95;2345427;75;51548;-78
2020/12/22 00:51:13;;;;;;;18.17;7.85;;;;;;;19.33;54.35;100587.08;2338766;75;51489;-77
2020/12/22 00:54:12;;;;;;;25.57;8.53;;;;;;;19.29;54.37;100575.08;2370426;75;22260;-77
2020/12/22 00:57:16;;;;;;;17.98;8.15;;;;;;;19.28;54.33;100578.77;2370636;75;51494;-78
2020/12/22 01:00:20;;;;;;;15.88;8.38;;;;;;;19.28;54.30;100572.05;2370527;75;50775;-78
2020/12/22 01:03:22;;;;;;;16.32;7.70;;;;;;;19.26;54.17;100556.66;2370912;75;51510;-77
2020/12/22 01:06:25;;;;;;;18.20;8.23;;;;;;;19.24;54.39;100551.16;2370804;75;52101;-79
2020/12/22 01:09:27;;;;;;;24.12;8.00;;;;;;;19.24;54.30;100553.36;2330250;75;50196;-80
2020/12/22 01:12:29;;;;;;;16.37;7.65;;;;;;;19.21;54.32;100550.20;2339697;75;50671;-81
2020/12/22 01:15:31;;;;;;;20.45;7.97;;;;;;;19.18;54.43;100537.17;2370663;75;50664;-79
2020/12/22 01:18:34;;;;;;;16.65;7.62;;;;;;;19.18;54.38;100521.08;2344660;75;51447;-79
2020/12/22 01:21:36;;;;;;;13.98;7.53;;;;;;;19.18;54.27;100517.88;2331302;75;51465;-78
2020/12/22 01:24:38;;;;;;;15.43;7.62;;;;;;;19.18;54.28;100518.40;2330429;76;51894;-78
2020/12/22 01:27:41;;;;;;;17.05;7.05;;;;;;;19.15;54.28;100498.16;2329539;75;50696;-78
2020/12/22 01:30:43;;;;;;;16.50;7.37;;;;;;;19.12;54.33;100505.25;2328638;75;51445;-78
2020/12/22 01:33:45;;;;;;;19.12;8.33;;;;;;;19.11;54.27;100511.61;2355282;75;50370;-79
2020/12/22 01:36:47;;;;;;;18.92;7.85;;;;;;;19.10;54.22;100512.64;2337031;75;50352;-78
2020/12/22 01:39:49;;;;;;;18.67;7.47;;;;;;;19.08;54.29;100498.07;2316821;75;50342;-78
2020/12/22 01:42:52;;;;;;;16.73;7.75;;;;;;;19.07;54.30;100500.44;2347749;75;50357;-78
2020/12/22 01:45:54;;;;;;;19.10;7.60;;;;;;;19.05;54.29;100486.39;2353501;75;50698;-77
2020/12/22 01:48:57;;;;;;;15.13;7.80;;;;;;;19.05;54.21;100484.22;2349030;75;51469;-78
2020/12/22 01:51:59;;;;;;;17.12;6.87;;;;;;;19.04;54.36;100477.21;2337653;75;51515;-77
2020/12/22 01:55:01;;;;;;;19.45;7.78;;;;;;;19.04;54.27;100470.51;2354493;75;51494;-77
2020/12/22 01:58:03;;;;;;;12.73;7.05;;;;;;;19.01;54.28;100454.29;2353129;75;50682;-78
2020/12/22 02:01:06;;;;;;;14.23;7.58;;;;;;;18.99;54.28;100457.66;2323601;75;50352;-78
2020/12/22 02:04:09;;;;;;;17.52;7.67;;;;;;;18.98;54.32;100451.97;2322868;75;50660;-77
2020/12/22 02:07:12;;;;;;;15.98;7.20;;;;;;;18.99;54.29;100443.44;2319312;75;51708;-77
2020/12/22 02:10:14;;;;;;;18.75;8.08;;;;;;;18.98;54.20;100443.09;2317528;75;50671;-77
2020/12/22 02:13:17;;;;;;;17.07;7.65;;;;;;;18.97;54.37;100436.08;2316708;75;50415;-77
2020/12/22 02:16:19;;;;;;;12.75;7.62;;;;;;;18.95;54.20;100430.90;2347844;75;50647;-77
2020/12/22 02:19:22;;;;;;;15.08;7.83;;;;;;;18.93;54.20;100427.09;2354763;75;52315;-77
2020/12/22 02:22:24;;;;;;;13.03;7.62;;;;;;;18.93;54.22;100421.73;2365699;75;51043;-77
2020/12/22 02:25:26;;;;;;;12.58;7.25;;;;;;;18.93;54.32;100419.53;2361991;73;50739;-77
2020/12/22 02:28:28;;;;;;;14.83;7.05;;;;;;;18.91;54.23;100413.55;2355008;75;51467;-77
2020/12/22 02:31:31;;;;;;;14.70;7.10;;;;;;;18.90;54.37;100408.67;2354196;75;51481;-77
2020/12/22 02:34:33;;;;;;;14.38;7.20;;;;;;;18.89;54.23;100400.84;2351137;75;51570;-77
2020/12/22 02:37:35;;;;;;;13.70;7.03;;;;;;;18.88;54.32;100396.00;2323597;75;50353;-77
2020/12/22 02:40:37;;;;;;;15.10;7.22;;;;;;;18.88;54.43;100397.34;2316799;76;50675;-77
2020/12/22 02:43:39;;;;;;;15.68;7.47;;;;;;;18.88;54.21;100393.80;2336130;75;51534;-78
2020/12/22 02:46:42;;;;;;;15.63;6.85;;;;;;;18.86;54.27;100390.51;2355030;75;50554;-77
2020/12/22 02:49:44;;;;;;;12.65;6.72;;;;;;;18.83;54.34;100372.95;2353426;75;51582;-78
2020/12/22 02:52:46;;;;;;;17.00;6.78;;;;;;;18.86;54.19;100371.74;2328725;75;51480;-77
2020/12/22 02:55:48;;;;;;;13.62;6.58;;;;;;;18.83;54.09;100355.53;2355028;75;51463;-77
2020/12/22 02:58:51;;;;;;;14.07;7.05;;;;;;;18.84;54.17;100353.67;2335848;75;50216;-77
2020/12/22 03:01:54;;;;;;;17.98;7.28;;;;;;;18.83;54.12;100351.51;2316772;76;49980;-77
2020/12/22 03:04:56;;;;;;;13.70;6.90;;;;;;;18.84;54.03;100345.63;2348527;75;51602;-77
2020/12/22 03:07:58;;;;;;;16.32;7.20;;;;;;;18.82;54.15;100332.92;2328415;75;51450;-77
2020/12/22 03:11:00;;;;;;;14.23;6.55;;;;;;;18.80;54.21;100327.74;2324554;75;50703;-77
2020/12/22 03:14:03;;;;;;;12.43;6.92;;;;;;;18.80;54.21;100329.08;2324557;76;51391;-77
2020/12/22 03:17:05;;;;;;;14.80;6.62;;;;;;;18.78;54.20;100331.16;2340394;75;50964;-77
2020/12/22 03:20:11;;;;;;;14.65;7.33;;;;;;;18.76;54.38;100322.47;2354758;75;50288;-77
2020/12/22 03:23:13;;;;;;;14.55;7.33;;;;;;;18.76;54.27;100315.77;2321173;75;50027;-77
2020/12/22 03:26:16;;;;;;;11.55;7.10;;;;;;;18.74;54.29;100307.05;2323910;75;50944;-77
2020/12/22 03:29:18;;;;;;;11.03;7.00;;;;;;;18.74;54.21;100309.73;2354797;75;50402;-78
2020/12/22 03:32:20;;;;;;;14.43;7.50;;;;;;;18.73;54.31;100310.77;2363656;75;50456;-77
2020/12/22 03:35:22;;;;;;;11.35;7.12;;;;;;;18.72;54.23;100297.85;2369695;75;51400;-77
2020/12/22 03:38:24;;;;;;;10.90;6.80;;;;;;;18.72;54.21;100292.48;2370474;75;50283;-77
2020/12/22 03:41:27;;;;;;;15.95;7.05;;;;;;;18.71;54.25;100285.48;2370291;75;50360;-78
2020/12/22 03:44:29;;;;;;;12.98;6.42;;;;;;;18.70;54.30;100272.27;2360585;75;50692;-77
2020/12/22 03:47:31;;;;;;;12.43;7.10;;;;;;;18.69;54.37;100271.95;2327941;76;51488;-78
2020/12/22 03:50:33;;;;;;;10.63;6.42;;;;;;;18.68;54.41;100261.75;2349468;75;51517;-77
2020/12/22 03:53:35;;;;;;;11.20;6.97;;;;;;;18.67;54.26;100255.23;2346902;75;51443;-77
2020/12/22 03:56:38;;;;;;;12.95;6.67;;;;;;;18.68;54.24;100252.89;2370540;75;50215;-77
2020/12/22 03:59:40;;;;;;;13.08;6.40;;;;;;;18.67;54.30;100244.52;2370175;75;51544;-78
2020/12/22 04:02:43;;;;;;;12.05;6.42;;;;;;;18.68;54.11;100247.53;2368391;75;51556;-77
2020/12/22 04:05:45;;;;;;;15.03;7.12;;;;;;;18.67;54.10;100236.47;2360728;75;51589;-78
2020/12/22 04:08:49;;;;;;;11.43;6.55;;;;;;;18.66;54.09;100212.05;2328023;75;51469;-77
2020/12/22 04:11:52;;;;;;;10.93;6.35;;;;;;;18.64;54.20;100214.91;2352236;75;51461;-78
2020/12/22 04:14:54;;;;;;;10.78;6.03;;;;;;;18.64;54.28;100208.73;2370692;75;51545;-77
2020/12/22 04:17:56;;;;;;;11.05;6.12;;;;;;;18.63;54.30;100209.77;2332301;75;51539;-78
2020/12/22 04:21:01;;;;;;;13.43;6.40;;;;;;;18.62;54.18;100196.03;2337541;74;51544;-78
2020/12/22 04:24:04;;;;;;;11.22;6.85;;;;;;;18.62;54.16;100183.98;2370878;75;50617;-78
2020/12/22 04:27:06;;;;;;;9.65;6.22;;;;;;;18.61;54.13;100187.69;2346045;75;51480;-78
2020/12/22 04:30:08;;;;;;;10.35;6.28;;;;;;;18.61;54.14;100174.30;2357131;75;51859;-78
2020/12/22 04:33:11;;;;;;;12.98;6.50;;;;;;;18.60;54.20;100181.99;2378813;74;50247;-78
2020/12/22 04:36:13;;;;;;;15.35;6.05;;;;;;;18.59;54.15;100172.31;2342049;76;50738;-78
2020/12/22 04:39:16;;;;;;;13.08;6.17;;;;;;;18.58;54.23;100158.61;2371582;74;50644;-79
2020/12/22 04:42:19;;;;;;;10.48;5.92;;;;;;;18.58;54.19;100159.95;2382378;74;51442;-77
2020/12/22 04:45:21;;;;;;;14.25;6.08;;;;;;;18.57;54.28;100150.23;2383002;74;51492;-77
2020/12/22 04:48:24;;;;;;;11.30;6.37;;;;;;;18.55;54.32;100151.79;2382161;74;50398;-77
2020/12/22 04:51:26;;;;;;;12.47;6.33;;;;;;;18.55;54.30;100144.23;2368381;74;50428;-77
2020/12/22 04:54:28;;;;;;;10.60;5.83;;;;;;;18.56;54.05;100137.36;2374337;74;50555;-77
2020/12/22 04:57:33;;;;;;;12.40;5.95;;;;;;;18.54;54.27;100130.53;2382773;74;51554;-77
2020/12/22 05:00:35;;;;;;;11.53;6.08;;;;;;;18.54;54.04;100125.18;2383302;74;50270;-77
2020/12/22 05:03:38;;;;;;;9.20;5.72;;;;;;;18.53;54.18;100114.16;2382349;74;50255;-77
2020/12/22 05:06:40;;;;;;;12.65;5.85;;;;;;;18.50;54.25;100116.20;2382211;74;50587;-76
2020/12/22 05:09:42;;;;;;;15.30;6.47;;;;;;;18.50;54.06;100113.52;2382795;74;50668;-77
2020/12/22 05:12:44;;;;;;;12.45;5.55;;;;;;;18.49;54.31;100107.83;2367264;74;51483;-77
2020/12/22 05:15:49;;;;;;;12.45;6.58;;;;;;;18.48;54.28;100104.02;2340093;75;50378;-77
2020/12/22 05:18:51;;;;;;;11.30;6.03;;;;;;;18.47;54.53;100104.55;2370952;74;50553;-77
2020/12/22 05:21:53;;;;;;;10.70;6.15;;;;;;;18.49;54.13;100111.02;2363910;74;51556;-77
2020/12/22 05:24:55;;;;;;;10.85;6.17;;;;;;;18.52;53.92;100109.28;2383026;74;50677;-77
2020/12/22 05:27:58;;;;;;;9.28;5.28;;;;;;;18.53;53.75;100098.91;2349917;74;51503;-76
2020/12/22 05:31:00;;;;;;;9.80;5.60;;;;;;;18.57;53.68;100089.43;2357941;75;50453;-77
2020/12/22 05:34:02;;;;;;;9.55;5.20;;;;;;;18.59;53.62;100085.23;2360935;75;50303;-77
2020/12/22 05:37:07;;;;;;;10.48;6.17;;;;;;;18.60;53.51;100084.19;2331669;75;51177;-77
2020/12/22 05:40:12;;;;;;;11.68;5.28;;;;;;;18.63;53.49;100073.92;2324524;75;53307;-77
2020/12/22 05:43:15;;;;;;;9.05;5.33;;;;;;;18.67;53.34;100074.34;2317030;76;50456;-77
2020/12/22 05:46:17;;;;;;;8.23;4.78;;;;;;;18.70;53.29;100064.56;2334877;75;50627;-77
2020/12/22 05:49:19;;;;;;;10.40;5.53;;;;;;;18.72;53.06;100058.50;2354928;75;51221;-78
2020/12/22 05:52:22;;;;;;;10.78;5.83;;;;;;;18.74;53.17;100056.45;2327843;75;51505;-79
2020/12/22 05:55:30;;;;;;;9.25;5.70;;;;;;;18.86;52.85;100052.23;2348537;75;50268;-79
2020/12/22 05:58:32;;;;;;;7.67;4.90;;;;;;;19.03;52.41;100043.83;2354458;75;51626;-79
2020/12/22 06:01:35;;;;;;;8.73;5.00;;;;;;;18.99;52.50;100050.12;2355120;75;51495;-79
2020/12/22 06:04:37;;;;;;;8.08;4.85;;;;;;;18.99;52.66;100046.09;2335140;75;52448;-81
2020/12/22 06:07:39;;;;;;;6.92;4.53;;;;;;;19.07;52.33;100035.70;2316917;76;50767;-79
2020/12/22 06:10:42;;;;;;;7.53;4.72;;;;;;;19.06;52.33;100032.20;2317218;75;50304;-79
2020/12/22 06:13:46;;;;;;;10.70;4.90;;;;;;;19.05;52.51;100041.26;2323433;75;51563;-79
2020/12/22 06:16:49;;;;;;;6.80;4.92;;;;;;;19.07;52.57;100033.03;2354819;75;50488;-78
2020/12/22 06:19:51;;;;;;;10.50;4.58;;;;;;;19.11;52.36;100032.92;2354367;75;50748;-79
2020/12/22 06:23:07;;;;;;;9.33;4.50;;;;;;;19.17;52.31;100025.95;2344716;75;50680;-79
2020/12/22 06:26:09;;;;;;;7.90;4.28;;;;;;;19.21;52.18;100032.02;2354645;75;50252;-79
2020/12/22 06:29:24;;;;;;;9.50;5.10;;;;;;;19.23;52.20;100025.95;2354773;75;50611;-79
2020/12/22 06:32:29;;;;;;;8.38;4.15;;;;;;;19.25;52.13;100021.22;2341680;75;50388;-81
2020/12/22 06:35:31;;;;;;;7.05;4.22;;;;;;;19.31;52.01;100023.07;2340812;76;50226;-79
2020/12/22 06:38:56;;;;;;;8.03;4.25;;;;;;;19.33;52.00;100020.20;2341445;74;50347;-78
2020/12/22 06:41:58;;;;;;;7.45;4.30;;;;;;;19.37;51.89;100018.77;2340779;74;50149;-78
2020/12/22 06:45:25;;;;;;;7.03;4.33;;;;;;;19.39;51.83;100015.88;2340105;76;50109;-80
2020/12/22 06:48:27;;;;;;;7.67;4.37;;;;;;;19.40;51.82;100015.68;2342092;74;52479;-78
2020/12/22 06:51:31;;;;;;;5.67;3.70;;;;;;;19.44;51.78;100026.30;2355982;74;51614;-78
2020/12/22 06:54:34;;;;;;;7.00;4.00;;;;;;;19.46;51.70;99975.95;2340791;74;51625;-78
2020/12/22 06:57:49;;;;;;;7.20;4.12;;;;;;;19.50;51.56;99979.06;2352095;74;51502;-77
2020/12/22 07:00:51;;;;;;;6.43;4.20;;;;;;;19.56;51.50;100007.75;2383482;74;50446;-76
2020/12/22 07:03:56;;;;;;;8.03;3.52;;;;;;;19.54;51.57;100009.80;2353289;74;50721;-77
2020/12/22 07:07:02;;;;;;;6.25;3.70;;;;;;;19.59;51.50;100000.63;2334510;74;50494;-79
2020/12/22 07:10:06;;;;;;;4.78;3.12;;;;;;;19.63;51.36;99996.51;2382124;74;50652;-78
2020/12/22 07:13:09;;;;;;;8.43;4.00;;;;;;;19.65;51.28;99991.77;2381925;74;51451;-78
2020/12/22 07:16:11;;;;;;;6.25;3.47;;;;;;;19.66;51.28;99985.87;2382360;74;51503;-77
2020/12/22 07:19:16;;;;;;;6.37;3.25;;;;;;;19.68;51.21;99976.63;2382238;74;50239;-79
2020/12/22 07:22:18;;;;;;;6.28;3.67;;;;;;;19.70;51.23;99975.88;2382576;74;50808;-78
2020/12/22 07:25:20;;;;;;;10.58;3.60;;;;;;;19.73;51.22;99980.85;2382294;74;50291;-78
2020/12/22 07:28:23;;;;;;;8.03;3.27;;;;;;;19.76;51.21;99977.75;2381979;74;50644;-78
2020/12/22 07:31:25;;;;;;;8.58;3.60;;;;;;;19.78;51.23;99985.58;2371131;74;51441;-78
2020/12/22 07:34:27;;;;;;;12.95;3.60;;;;;;;19.80;51.27;99980.83;2360597;74;50697;-78
2020/12/22 07:41:26;;;;;;;6.67;3.42;;;;;;;19.83;51.31;99986.30;2424715;72;22229;-77
2020/12/22 07:44:28;;;;;;;10.30;3.30;;;;;;;19.86;51.25;99977.34;2425318;73;50564;-76
2020/12/22 07:47:31;;;;;;;11.40;3.72;;;;;;;19.87;51.26;99980.31;2398732;73;51609;-77
2020/12/22 07:50:33;;;;;;;8.33;3.50;;;;;;;19.88;51.20;99971.22;2406960;73;50615;-77
2020/12/22 07:53:35;;;;;;;6.67;3.00;;;;;;;19.92;51.11;99970.30;2391731;74;51450;-77
2020/12/22 07:56:39;;;;;;;7.97;3.22;;;;;;;19.93;51.05;99969.26;2400163;73;51431;-77
2020/12/22 07:59:41;;;;;;;9.53;3.60;;;;;;;19.94;51.04;99979.80;2417194;73;50292;-77
2020/12/22 08:02:44;;;;;;;8.70;3.20;;;;;;;19.97;50.99;99978.56;2412222;73;51524;-76
2020/12/22 08:06:02;;;;;;;7.90;3.02;;;;;;;20.01;50.94;99981.13;2414354;73;51526;-77
2020/12/22 08:09:05;;;;;;;5.75;3.50;;;;;;;20.01;50.91;99985.15;2412153;73;50636;-77
2020/12/22 08:12:08;;;;;;;9.58;3.50;;;;;;;20.04;50.88;99974.02;2401498;73;50329;-77
2020/12/22 08:15:11;;;;;;;8.30;3.22;;;;;;;20.06;50.85;99973.27;2405641;73;51485;-77
2020/12/22 08:18:13;;;;;;;9.60;3.27;;;;;;;20.07;50.80;99968.22;2395641;73;51485;-77
2020/12/22 08:21:16;;;;;;;7.45;3.27;;;;;;;20.09;50.79;99972.87;2405425;73;51494;-78
2020/12/22 08:24:19;;;;;;;12.68;3.10;;;;;;;20.11;50.74;99978.83;2410304;73;50292;-77
2020/12/22 08:27:21;;;;;;;8.58;3.00;;;;;;;20.14;50.68;99979.78;2391883;74;50146;-77
2020/12/22 08:30:23;;;;;;;10.75;3.35;;;;;;;20.15;50.63;99967.98;2392123;74;50704;-77
2020/12/22 08:33:25;;;;;;;9.90;3.15;;;;;;;20.18;50.62;99980.17;2391710;74;51544;-77
2020/12/22 08:36:29;;;;;;;10.85;3.40;;;;;;;20.19;50.75;99998.78;2391669;74;51488;-76
2020/12/22 08:39:31;;;;;;;13.80;3.62;;;;;;;20.20;50.81;100004.97;2409953;73;51533;-77
2020/12/22 08:42:33;;;;;;;11.10;3.58;;;;;;;20.21;50.87;100007.43;2353468;73;50324;-77
2020/12/22 08:45:35;;;;;;;14.23;4.37;;;;;;;20.25;50.97;100004.34;2414264;73;50311;-77
2020/12/22 08:48:38;;;;;;;15.78;4.08;;;;;;;20.26;51.01;100002.78;2413634;73;50583;-77
2020/12/22 08:51:40;;;;;;;7.65;2.75;;;;;;;20.26;50.24;99999.27;2414311;73;50327;-77
2020/12/22 08:54:46;;;;;;;11.95;3.83;;;;;;;20.32;50.34;100007.83;2396635;73;50483;-78
2020/12/22 08:57:48;;;;;;;12.63;3.58;;;;;;;20.35;50.58;100004.74;2391433;74;49873;-77
2020/12/22 09:00:50;;;;;;;11.40;3.20;;;;;;;20.40;50.69;100008.97;2391427;74;50429;-78
2020/12/22 09:03:54;;;;;;;21.07;3.60;;;;;;;20.42;50.74;100011.75;2404438;73;50596;-78
2020/12/22 09:06:56;;;;;;;13.43;3.52;;;;;;;20.47;50.72;100013.78;2414319;73;51481;-78
2020/12/22 09:10:06;;;;;;;11.10;3.40;;;;;;;20.52;50.73;100010.47;2396180;73;50604;-78
2020/12/22 09:13:16;;;;;;;11.05;3.37;;;;;;;20.54;50.75;100017.31;2420191;73;50821;-78
2020/12/22 09:16:18;;;;;;;12.60;3.15;;;;;;;20.56;50.76;100025.18;2420782;73;51566;-78
2020/12/22 09:19:23;;;;;;;11.10;3.60;;;;;;;20.59;50.75;100025.57;2420537;73;51592;-78
2020/12/22 09:22:33;;;;;;;13.47;3.63;;;;;;;20.62;50.71;100018.42;2419577;73;50746;-78
2020/12/22 09:25:35;;;;;;;9.78;3.42;;;;;;;20.64;50.67;100035.17;2416122;73;51367;-78
2020/12/22 09:28:37;;;;;;;19.82;3.20;;;;;;;20.65;50.66;100027.92;2415779;73;50692;-78
2020/12/22 09:31:40;;;;;;;15.38;3.27;;;;;;;20.69;50.58;100031.03;2416647;73;50227;-78
2020/12/22 09:34:42;;;;;;;7.80;2.55;;;;;;;20.66;50.62;100037.13;2417240;73;50040;-80
2020/12/22 09:37:46;;;;;;;13.28;2.92;;;;;;;20.70;50.59;100034.84;2410931;73;49882;-80
2020/12/22 09:40:48;;;;;;;14.25;2.95;;;;;;;20.70;50.63;100034.02;2383658;73;51418;-79
2020/12/22 09:43:50;;;;;;;9.98;3.02;;;;;;;20.71;50.62;100037.85;2417914;73;50669;-80
2020/12/22 09:46:54;;;;;;;10.65;3.08;;;;;;;20.73;50.63;100034.93;2417735;72;51277;-80
2020/12/22 09:49:56;;;;;;;12.73;3.27;;;;;;;20.73;50.65;100037.13;2418490;73;50299;-79
2020/12/22 09:52:58;;;;;;;13.75;3.30;;;;;;;20.76;50.63;100043.94;2404527;73;50655;-77
2020/12/22 09:56:02;;;;;;;14.38;3.05;;;;;;;20.75;50.74;100044.96;2401802;73;51483;-77
2020/12/22 09:59:07;;;;;;;9.60;2.55;;;;;;;20.78;50.78;100043.19;2411636;72;50701;-77
2020/12/22 10:02:09;;;;;;;13.15;2.52;;;;;;;20.80;50.74;100029.02;2415734;73;50279;-77
2020/12/22 10:05:11;;;;;;;13.95;3.65;;;;;;;20.82;50.67;100048.45;2415005;73;51420;-78
2020/12/22 10:08:14;;;;;;;9.38;2.80;;;;;;;20.85;50.70;100054.22;2415145;73;50699;-78
2020/12/22 10:11:16;;;;;;;10.85;3.35;;;;;;;20.85;50.70;100053.41;2415760;73;52169;-78
2020/12/22 10:14:18;;;;;;;9.73;2.50;;;;;;;20.84;50.76;100046.39;2415774;73;49994;-78
2020/12/22 10:17:20;;;;;;;5.80;2.25;;;;;;;20.87;50.77;100054.84;2415432;73;50353;-78
2020/12/22 10:20:23;;;;;;;12.15;3.00;;;;;;;20.88;50.75;100060.55;2411601;73;50320;-77
2020/12/22 10:23:25;;;;;;;10.00;3.40;;;;;;;20.88;50.76;100051.14;2398660;73;50316;-77
2020/12/22 10:26:27;;;;;;;16.57;3.10;;;;;;;20.92;50.76;100050.70;2398695;73;50714;-78
2020/12/22 10:29:30;;;;;;;9.23;3.00;;;;;;;20.94;50.82;100058.05;2419869;73;51440;-78
2020/12/22 10:32:32;;;;;;;8.30;3.00;;;;;;;20.93;50.82;100061.23;2420014;73;50336;-78
2020/12/22 10:35:35;;;;;;;8.15;2.80;;;;;;;20.98;50.77;100064.63;2393244;73;50271;-77
2020/12/22 10:38:37;;;;;;;9.30;2.52;;;;;;;20.96;50.86;100068.90;2372980;75;51519;-77
2020/12/22 10:41:39;;;;;;;9.30;2.77;;;;;;;20.99;50.84;100070.30;2373500;75;50386;-77
2020/12/22 10:44:42;;;;;;;13.75;3.20;;;;;;;21.03;50.92;100067.51;2379810;74;50213;-78
2020/12/22 10:47:44;;;;;;;8.28;2.80;;;;;;;21.02;51.10;100059.97;2392538;74;50656;-78
2020/12/22 10:50:46;;;;;;;9.63;2.52;;;;;;;21.02;51.14;100059.97;2418921;73;51747;-78
2020/12/22 10:53:48;;;;;;;6.78;3.00;;;;;;;21.06;51.13;100059.00;2419937;73;50675;-78
2020/12/22 10:56:50;;;;;;;11.05;2.85;;;;;;;21.05;51.23;100080.23;2405964;73;50577;-79
2020/12/22 10:59:52;;;;;;;12.82;2.58;;;;;;;21.06;51.31;100071.93;2403632;73;50380;-78
2020/12/22 11:02:58;;;;;;;10.58;2.58;;;;;;;21.08;51.27;100071.20;2415272;73;50707;-78
2020/12/22 11:06:09;;;;;;;14.83;2.85;;;;;;;21.12;51.45;100068.08;2414840;73;22198;-76
2020/12/22 11:09:06;;;;;;;15.90;3.30;;;;;;;21.14;51.41;100075.42;2379781;73;22399;-74
2020/12/22 11:12:08;;;;;;;9.23;2.72;;;;;;;21.14;51.53;100077.59;2398379;73;50732;-78
2020/12/22 11:15:10;;;;;;;10.35;2.90;;;;;;;21.18;51.48;100076.66;2399898;73;50371;-76
2020/12/22 11:18:12;;;;;;;9.10;2.37;;;;;;;21.19;51.51;100083.68;2391797;74;49980;-76
2020/12/22 11:21:14;;;;;;;9.25;3.42;;;;;;;21.18;51.51;100079.34;2392384;74;50698;-76
2020/12/22 11:24:17;;;;;;;9.10;3.22;;;;;;;21.20;51.54;100085.34;2398544;73;50402;-75
2020/12/22 11:27:19;;;;;;;9.65;2.87;;;;;;;21.22;51.53;100085.94;2415559;73;50691;-78
2020/12/22 11:30:21;;;;;;;11.60;3.02;;;;;;;21.22;51.63;100096.20;2415608;73;51453;-77
2020/12/22 11:33:23;;;;;;;7.08;2.45;;;;;;;21.25;51.62;100085.53;2415710;73;50747;-77
2020/12/22 11:36:25;;;;;;;11.97;2.62;;;;;;;21.27;51.60;100088.31;2413664;73;50422;-76
2020/12/22 11:39:27;;;;;;;12.85;2.80;;;;;;;21.30;51.58;100096.48;2414131;73;50679;-78
2020/12/22 11:42:30;;;;;;;9.00;3.00;;;;;;;21.30;52.03;100081.15;2406971;73;50638;-76
2020/12/22 11:45:32;;;;;;;11.90;2.65;;;;;;;21.36;51.86;100095.61;2393080;73;50668;-77
2020/12/22 11:48:36;;;;;;;10.05;2.77;;;;;;;21.37;51.86;100096.42;2406652;73;51341;-77
2020/12/22 11:51:39;;;;;;;11.25;2.85;;;;;;;21.39;51.75;100103.28;2415367;73;51625;-79
2020/12/22 11:54:41;;;;;;;9.00;2.62;;;;;;;21.38;51.74;100093.56;2414327;73;52277;-75
2020/12/22 11:57:43;;;;;;;10.60;2.33;;;;;;;21.38;51.72;100102.98;2414329;73;50038;-76
2020/12/22 12:00:46;;;;;;;4.65;2.25;;;;;;;21.39;51.68;100107.84;2414389;73;50368;-76
2020/12/22 12:03:48;;;;;;;10.45;2.77;;;;;;;21.40;51.67;100115.71;2414378;73;50730;-78
2020/12/22 12:06:50;;;;;;;7.62;2.40;;;;;;;21.41;51.63;100112.50;2414419;73;51614;-76
2020/12/22 12:09:52;;;;;;;9.95;2.12;;;;;;;21.41;51.59;100117.35;2414345;73;52467;-76
2020/12/22 12:12:56;;;;;;;6.75;2.35;;;;;;;21.42;51.55;100114.95;2414993;73;51441;-76
2020/12/22 12:15:58;;;;;;;9.05;2.72;;;;;;;21.45;51.50;100115.05;2410994;73;51732;-76
2020/12/22 12:19:00;;;;;;;13.98;2.40;;;;;;;21.44;51.47;100112.88;2405044;73;51466;-76
2020/12/22 12:22:03;;;;;;;6.12;2.55;;;;;;;21.47;51.46;100119.70;2419333;73;50270;-75
2020/12/22 12:25:05;;;;;;;9.00;2.05;;;;;;;21.47;51.44;100119.70;2419307;73;50439;-76
2020/12/22 12:28:07;;;;;;;7.17;2.22;;;;;;;21.48;51.41;100129.45;2419045;73;50185;-76
2020/12/22 12:31:14;;;;;;;8.73;2.58;;;;;;;21.47;51.41;100129.13;2419304;73;50562;-78
2020/12/22 12:34:16;;;;;;;8.78;2.20;;;;;;;21.47;51.40;100128.59;2416535;72;50707;-75
2020/12/22 12:37:18;;;;;;;6.08;1.80;;;;;;;21.47;51.51;100112.97;2414078;73;50328;-75
